sensor_id;sensor_type;location;lat;lon;timestamp;P1;durP1;ratioP1;P2;durP2;ratioP2
73693;SDS011;61997;53.974;11.670;2023-05-07T00:00:08;10.07;;;6.68;;
73693;SDS011;61997;53.974;11.670;2023-05-07T00:02:37;12.45;;;7.53;;
73693;SDS011;61997;53.974;11.670;2023-05-07T00:05:09;10.20;;;6.53;;
73693;SDS011;61997;53.974;11.670;2023-05-07T00:07:40;12.95;;;6.72;;
73693;SDS011;61997;53.974;11.670;2023-05-07T00:10:09;11.55;;;7.28;;
73693;SDS011;61997;53.974;11.670;2023-05-07T00:12:35;11.70;;;7.30;;
73693;SDS011;61997;53.974;11.670;2023-05-07T00:15:02;10.45;;;6.53;;
73693;SDS011;61997;53.974;11.670;2023-05-07T00:17:30;10.88;;;6.65;;
73693;SDS011;61997;53.974;11.670;2023-05-07T00:19:56;10.85;;;6.65;;
73693;SDS011;61997;53.974;11.670;2023-05-07T00:22:26;10.85;;;6.78;;
73693;SDS011;61997;53.974;11.670;2023-05-07T00:24:54;10.90;;;6.93;;
73693;SDS011;61997;53.974;11.670;2023-05-07T00:27:20;12.77;;;6.82;;
73693;SDS011;61997;53.974;11.670;2023-05-07T00:29:47;11.82;;;6.65;;
73693;SDS011;61997;53.974;11.670;2023-05-07T00:32:13;10.80;;;6.63;;
73693;SDS011;61997;53.974;11.670;2023-05-07T00:34:40;11.60;;;7.05;;
73693;SDS011;61997;53.974;11.670;2023-05-07T00:37:08;11.23;;;6.68;;
73693;SDS011;61997;53.974;11.670;2023-05-07T00:39:36;10.38;;;6.70;;
73693;SDS011;61997;53.974;11.670;2023-05-07T00:42:03;11.23;;;6.05;;
73693;SDS011;61997;53.974;11.670;2023-05-07T00:44:31;11.60;;;6.50;;
73693;SDS011;61997;53.974;11.670;2023-05-07T00:47:00;10.95;;;6.82;;
73693;SDS011;61997;53.974;11.670;2023-05-07T00:49:32;9.00;;;6.43;;
73693;SDS011;61997;53.974;11.670;2023-05-07T00:52:02;11.48;;;6.22;;
73693;SDS011;61997;53.974;11.670;2023-05-07T00:57:00;10.15;;;6.15;;
73693;SDS011;61997;53.974;11.670;2023-05-07T00:59:28;9.23;;;6.07;;
73693;SDS011;61997;53.974;11.670;2023-05-07T01:02:00;9.35;;;5.72;;
73693;SDS011;61997;53.974;11.670;2023-05-07T01:07:04;9.82;;;6.10;;
73693;SDS011;61997;53.974;11.670;2023-05-07T01:09:33;10.15;;;6.43;;
73693;SDS011;61997;53.974;11.670;2023-05-07T01:12:00;11.57;;;6.03;;
73693;SDS011;61997;53.974;11.670;2023-05-07T01:14:30;10.25;;;5.47;;
73693;SDS011;61997;53.974;11.670;2023-05-07T01:17:00;9.18;;;5.72;;
73693;SDS011;61997;53.974;11.670;2023-05-07T01:19:29;10.65;;;5.78;;
73693;SDS011;61997;53.974;11.670;2023-05-07T01:22:01;9.35;;;5.78;;
73693;SDS011;61997;53.974;11.670;2023-05-07T01:24:32;11.13;;;5.93;;
73693;SDS011;61997;53.974;11.670;2023-05-07T01:27:04;10.63;;;5.97;;
73693;SDS011;61997;53.974;11.670;2023-05-07T01:29:35;10.10;;;5.80;;
73693;SDS011;61997;53.974;11.670;2023-05-07T01:32:03;9.38;;;5.40;;
73693;SDS011;61997;53.974;11.670;2023-05-07T01:34:31;10.27;;;5.45;;
73693;SDS011;61997;53.974;11.670;2023-05-07T01:37:01;9.00;;;5.43;;
73693;SDS011;61997;53.974;11.670;2023-05-07T01:39:37;9.55;;;6.05;;
73693;SDS011;61997;53.974;11.670;2023-05-07T01:42:07;8.20;;;5.30;;
73693;SDS011;61997;53.974;11.670;2023-05-07T01:44:38;8.30;;;5.43;;
73693;SDS011;61997;53.974;11.670;2023-05-07T01:47:08;8.70;;;5.47;;
73693;SDS011;61997;53.974;11.670;2023-05-07T01:49:37;7.43;;;4.70;;
73693;SDS011;61997;53.974;11.670;2023-05-07T01:52:16;7.90;;;5.30;;
73693;SDS011;61997;53.974;11.670;2023-05-07T01:54:49;8.90;;;5.07;;
73693;SDS011;61997;53.974;11.670;2023-05-07T01:57:25;7.35;;;4.78;;
73693;SDS011;61997;53.974;11.670;2023-05-07T01:59:59;9.27;;;5.65;;
73693;SDS011;61997;53.974;11.670;2023-05-07T02:02:28;6.85;;;4.88;;
73693;SDS011;61997;53.974;11.670;2023-05-07T02:05:00;7.57;;;4.75;;
73693;SDS011;61997;53.974;11.670;2023-05-07T02:07:31;7.80;;;4.80;;
73693;SDS011;61997;53.974;11.670;2023-05-07T02:10:08;7.05;;;4.90;;
73693;SDS011;61997;53.974;11.670;2023-05-07T02:12:41;8.00;;;5.50;;
73693;SDS011;61997;53.974;11.670;2023-05-07T02:15:10;7.97;;;4.63;;
73693;SDS011;61997;53.974;11.670;2023-05-07T02:17:38;6.80;;;5.32;;
73693;SDS011;61997;53.974;11.670;2023-05-07T02:20:28;7.93;;;5.38;;
73693;SDS011;61997;53.974;11.670;2023-05-07T02:23:05;8.90;;;4.65;;
73693;SDS011;61997;53.974;11.670;2023-05-07T02:25:38;7.72;;;4.88;;
73693;SDS011;61997;53.974;11.670;2023-05-07T02:28:11;6.97;;;4.57;;
73693;SDS011;61997;53.974;11.670;2023-05-07T02:30:46;8.20;;;5.32;;
73693;SDS011;61997;53.974;11.670;2023-05-07T02:33:19;8.38;;;4.65;;
73693;SDS011;61997;53.974;11.670;2023-05-07T02:35:52;6.78;;;4.47;;
73693;SDS011;61997;53.974;11.670;2023-05-07T02:38:26;6.47;;;4.30;;
73693;SDS011;61997;53.974;11.670;2023-05-07T02:41:00;8.73;;;4.57;;
73693;SDS011;61997;53.974;11.670;2023-05-07T02:43:32;7.63;;;4.60;;
73693;SDS011;61997;53.974;11.670;2023-05-07T02:46:05;5.97;;;4.20;;
73693;SDS011;61997;53.974;11.670;2023-05-07T02:48:42;5.97;;;4.25;;
73693;SDS011;61997;53.974;11.670;2023-05-07T02:51:18;6.50;;;4.32;;
73693;SDS011;61997;53.974;11.670;2023-05-07T02:53:51;7.35;;;4.85;;
73693;SDS011;61997;53.974;11.670;2023-05-07T02:56:19;7.72;;;4.30;;
73693;SDS011;61997;53.974;11.670;2023-05-07T02:58:55;7.38;;;4.45;;
73693;SDS011;61997;53.974;11.670;2023-05-07T03:01:25;7.75;;;4.40;;
73693;SDS011;61997;53.974;11.670;2023-05-07T03:03:58;6.35;;;4.45;;
73693;SDS011;61997;53.974;11.670;2023-05-07T03:06:34;5.72;;;3.90;;
73693;SDS011;61997;53.974;11.670;2023-05-07T03:09:07;8.07;;;4.63;;
73693;SDS011;61997;53.974;11.670;2023-05-07T03:11:43;7.13;;;4.25;;
73693;SDS011;61997;53.974;11.670;2023-05-07T03:14:20;6.72;;;3.92;;
73693;SDS011;61997;53.974;11.670;2023-05-07T03:16:49;6.82;;;4.22;;
73693;SDS011;61997;53.974;11.670;2023-05-07T03:19:21;7.05;;;3.75;;
73693;SDS011;61997;53.974;11.670;2023-05-07T03:21:53;7.22;;;4.35;;
73693;SDS011;61997;53.974;11.670;2023-05-07T03:24:30;5.60;;;3.75;;
73693;SDS011;61997;53.974;11.670;2023-05-07T03:27:00;5.70;;;4.13;;
73693;SDS011;61997;53.974;11.670;2023-05-07T03:29:30;5.88;;;3.70;;
73693;SDS011;61997;53.974;11.670;2023-05-07T03:32:05;6.00;;;3.88;;
73693;SDS011;61997;53.974;11.670;2023-05-07T03:34:33;5.35;;;4.05;;
73693;SDS011;61997;53.974;11.670;2023-05-07T03:36:58;8.02;;;3.97;;
73693;SDS011;61997;53.974;11.670;2023-05-07T03:39:24;6.97;;;4.10;;
73693;SDS011;61997;53.974;11.670;2023-05-07T03:41:50;6.25;;;4.22;;
73693;SDS011;61997;53.974;11.670;2023-05-07T03:44:15;5.50;;;3.75;;
73693;SDS011;61997;53.974;11.670;2023-05-07T03:46:41;6.03;;;3.65;;
73693;SDS011;61997;53.974;11.670;2023-05-07T03:49:06;5.72;;;3.80;;
73693;SDS011;61997;53.974;11.670;2023-05-07T03:51:32;5.45;;;3.53;;
73693;SDS011;61997;53.974;11.670;2023-05-07T03:53:57;5.63;;;3.65;;
73693;SDS011;61997;53.974;11.670;2023-05-07T03:56:23;5.65;;;4.13;;
73693;SDS011;61997;53.974;11.670;2023-05-07T03:58:51;4.43;;;2.92;;
73693;SDS011;61997;53.974;11.670;2023-05-07T04:01:17;6.28;;;3.67;;
73693;SDS011;61997;53.974;11.670;2023-05-07T04:03:47;5.85;;;3.30;;
73693;SDS011;61997;53.974;11.670;2023-05-07T04:06:20;5.28;;;3.58;;
73693;SDS011;61997;53.974;11.670;2023-05-07T04:08:53;6.13;;;3.45;;
73693;SDS011;61997;53.974;11.670;2023-05-07T04:11:26;6.78;;;3.60;;
73693;SDS011;61997;53.974;11.670;2023-05-07T04:16:35;5.15;;;3.40;;
73693;SDS011;61997;53.974;11.670;2023-05-07T04:19:12;4.85;;;3.13;;
73693;SDS011;61997;53.974;11.670;2023-05-07T04:21:39;5.55;;;3.80;;
73693;SDS011;61997;53.974;11.670;2023-05-07T04:24:11;6.18;;;3.85;;
73693;SDS011;61997;53.974;11.670;2023-05-07T04:26:44;5.13;;;3.30;;
73693;SDS011;61997;53.974;11.670;2023-05-07T04:29:11;5.97;;;3.80;;
73693;SDS011;61997;53.974;11.670;2023-05-07T04:31:39;7.00;;;3.75;;
73693;SDS011;61997;53.974;11.670;2023-05-07T04:34:13;5.28;;;3.63;;
73693;SDS011;61997;53.974;11.670;2023-05-07T04:36:45;4.47;;;3.33;;
73693;SDS011;61997;53.974;11.670;2023-05-07T04:39:16;4.75;;;3.42;;
73693;SDS011;61997;53.974;11.670;2023-05-07T04:41:49;7.05;;;3.83;;
73693;SDS011;61997;53.974;11.670;2023-05-07T04:44:19;6.05;;;3.72;;
73693;SDS011;61997;53.974;11.670;2023-05-07T04:46:52;5.05;;;3.70;;
73693;SDS011;61997;53.974;11.670;2023-05-07T04:49:20;5.55;;;3.08;;
73693;SDS011;61997;53.974;11.670;2023-05-07T04:51:56;5.22;;;3.38;;
73693;SDS011;61997;53.974;11.670;2023-05-07T04:54:22;4.40;;;3.70;;
73693;SDS011;61997;53.974;11.670;2023-05-07T04:56:47;4.00;;;3.25;;
73693;SDS011;61997;53.974;11.670;2023-05-07T04:59:14;4.55;;;2.90;;
73693;SDS011;61997;53.974;11.670;2023-05-07T05:01:40;5.88;;;3.65;;
73693;SDS011;61997;53.974;11.670;2023-05-07T05:04:18;4.93;;;2.95;;
73693;SDS011;61997;53.974;11.670;2023-05-07T05:06:49;4.40;;;2.92;;
73693;SDS011;61997;53.974;11.670;2023-05-07T05:09:22;4.32;;;3.33;;
73693;SDS011;61997;53.974;11.670;2023-05-07T05:11:56;5.00;;;3.33;;
73693;SDS011;61997;53.974;11.670;2023-05-07T05:14:36;5.13;;;3.45;;
73693;SDS011;61997;53.974;11.670;2023-05-07T05:17:09;4.35;;;3.08;;
73693;SDS011;61997;53.974;11.670;2023-05-07T05:19:42;5.13;;;2.97;;
73693;SDS011;61997;53.974;11.670;2023-05-07T05:22:13;4.30;;;2.72;;
73693;SDS011;61997;53.974;11.670;2023-05-07T05:24:44;4.20;;;3.20;;
73693;SDS011;61997;53.974;11.670;2023-05-07T05:27:16;5.32;;;2.88;;
73693;SDS011;61997;53.974;11.670;2023-05-07T05:29:43;6.20;;;3.28;;
73693;SDS011;61997;53.974;11.670;2023-05-07T05:32:20;4.28;;;3.22;;
73693;SDS011;61997;53.974;11.670;2023-05-07T05:34:54;4.40;;;2.90;;
73693;SDS011;61997;53.974;11.670;2023-05-07T05:37:27;4.25;;;2.88;;
73693;SDS011;61997;53.974;11.670;2023-05-07T05:39:58;5.63;;;3.30;;
73693;SDS011;61997;53.974;11.670;2023-05-07T05:42:28;4.70;;;2.95;;
73693;SDS011;61997;53.974;11.670;2023-05-07T05:45:08;6.63;;;3.30;;
73693;SDS011;61997;53.974;11.670;2023-05-07T05:47:41;3.67;;;2.75;;
73693;SDS011;61997;53.974;11.670;2023-05-07T05:50:16;4.03;;;2.80;;
73693;SDS011;61997;53.974;11.670;2023-05-07T05:52:52;4.32;;;3.08;;
73693;SDS011;61997;53.974;11.670;2023-05-07T05:55:27;3.90;;;3.05;;
73693;SDS011;61997;53.974;11.670;2023-05-07T05:58:13;3.45;;;2.65;;
73693;SDS011;61997;53.974;11.670;2023-05-07T06:00:46;3.97;;;2.70;;
73693;SDS011;61997;53.974;11.670;2023-05-07T06:03:25;4.57;;;3.10;;
73693;SDS011;61997;53.974;11.670;2023-05-07T06:05:59;4.18;;;2.83;;
73693;SDS011;61997;53.974;11.670;2023-05-07T06:08:28;5.15;;;3.30;;
73693;SDS011;61997;53.974;11.670;2023-05-07T06:10:56;4.85;;;2.78;;
73693;SDS011;61997;53.974;11.670;2023-05-07T06:13:26;4.10;;;2.83;;
73693;SDS011;61997;53.974;11.670;2023-05-07T06:15:54;5.15;;;3.05;;
73693;SDS011;61997;53.974;11.670;2023-05-07T06:18:26;5.32;;;3.10;;
73693;SDS011;61997;53.974;11.670;2023-05-07T06:20:58;4.68;;;2.97;;
73693;SDS011;61997;53.974;11.670;2023-05-07T06:23:24;4.10;;;2.72;;
73693;SDS011;61997;53.974;11.670;2023-05-07T06:25:50;4.38;;;3.00;;
73693;SDS011;61997;53.974;11.670;2023-05-07T06:28:17;4.63;;;2.78;;
73693;SDS011;61997;53.974;11.670;2023-05-07T06:30:42;4.70;;;2.80;;
73693;SDS011;61997;53.974;11.670;2023-05-07T06:33:08;3.67;;;2.50;;
73693;SDS011;61997;53.974;11.670;2023-05-07T06:35:37;4.28;;;2.75;;
73693;SDS011;61997;53.974;11.670;2023-05-07T06:38:05;4.90;;;3.10;;
73693;SDS011;61997;53.974;11.670;2023-05-07T06:40:36;4.60;;;3.03;;
73693;SDS011;61997;53.974;11.670;2023-05-07T06:43:06;4.22;;;2.90;;
73693;SDS011;61997;53.974;11.670;2023-05-07T06:45:33;5.22;;;3.17;;
73693;SDS011;61997;53.974;11.670;2023-05-07T06:48:02;3.47;;;2.42;;
73693;SDS011;61997;53.974;11.670;2023-05-07T06:50:30;4.05;;;2.78;;
73693;SDS011;61997;53.974;11.670;2023-05-07T06:52:56;3.08;;;2.25;;
73693;SDS011;61997;53.974;11.670;2023-05-07T06:55:27;3.60;;;2.45;;
73693;SDS011;61997;53.974;11.670;2023-05-07T06:57:54;5.05;;;2.80;;
73693;SDS011;61997;53.974;11.670;2023-05-07T07:00:21;3.88;;;2.67;;
73693;SDS011;61997;53.974;11.670;2023-05-07T07:02:50;4.40;;;2.70;;
73693;SDS011;61997;53.974;11.670;2023-05-07T07:05:20;4.15;;;2.65;;
73693;SDS011;61997;53.974;11.670;2023-05-07T07:07:56;3.97;;;2.63;;
73693;SDS011;61997;53.974;11.670;2023-05-07T07:10:27;3.95;;;2.53;;
73693;SDS011;61997;53.974;11.670;2023-05-07T07:12:55;4.82;;;2.92;;
73693;SDS011;61997;53.974;11.670;2023-05-07T07:15:26;3.53;;;2.30;;
73693;SDS011;61997;53.974;11.670;2023-05-07T07:17:55;3.88;;;2.60;;
73693;SDS011;61997;53.974;11.670;2023-05-07T07:20:27;4.05;;;2.53;;
73693;SDS011;61997;53.974;11.670;2023-05-07T07:23:05;3.22;;;2.40;;
73693;SDS011;61997;53.974;11.670;2023-05-07T07:25:36;3.75;;;2.45;;
73693;SDS011;61997;53.974;11.670;2023-05-07T07:28:16;3.00;;;2.30;;
73693;SDS011;61997;53.974;11.670;2023-05-07T07:30:52;3.63;;;2.55;;
73693;SDS011;61997;53.974;11.670;2023-05-07T07:33:20;2.83;;;2.08;;
73693;SDS011;61997;53.974;11.670;2023-05-07T07:35:55;2.80;;;2.42;;
73693;SDS011;61997;53.974;11.670;2023-05-07T07:38:21;4.43;;;2.95;;
73693;SDS011;61997;53.974;11.670;2023-05-07T07:40:47;3.33;;;2.33;;
73693;SDS011;61997;53.974;11.670;2023-05-07T07:43:16;3.53;;;2.35;;
73693;SDS011;61997;53.974;11.670;2023-05-07T07:45:44;2.67;;;2.05;;
73693;SDS011;61997;53.974;11.670;2023-05-07T07:48:12;3.13;;;2.42;;
73693;SDS011;61997;53.974;11.670;2023-05-07T07:50:38;3.20;;;2.45;;
73693;SDS011;61997;53.974;11.670;2023-05-07T07:53:05;3.00;;;2.33;;
73693;SDS011;61997;53.974;11.670;2023-05-07T07:55:31;4.00;;;2.55;;
73693;SDS011;61997;53.974;11.670;2023-05-07T07:57:57;4.05;;;2.28;;
73693;SDS011;61997;53.974;11.670;2023-05-07T08:00:23;4.00;;;2.40;;
73693;SDS011;61997;53.974;11.670;2023-05-07T08:02:50;4.15;;;2.50;;
73693;SDS011;61997;53.974;11.670;2023-05-07T08:05:17;3.33;;;2.38;;
73693;SDS011;61997;53.974;11.670;2023-05-07T08:07:47;3.38;;;2.53;;
73693;SDS011;61997;53.974;11.670;2023-05-07T08:10:17;4.38;;;2.40;;
73693;SDS011;61997;53.974;11.670;2023-05-07T08:12:51;2.78;;;2.13;;
73693;SDS011;61997;53.974;11.670;2023-05-07T08:15:17;3.05;;;2.08;;
73693;SDS011;61997;53.974;11.670;2023-05-07T08:17:43;3.08;;;2.20;;
73693;SDS011;61997;53.974;11.670;2023-05-07T08:22:37;4.38;;;2.22;;
73693;SDS011;61997;53.974;11.670;2023-05-07T08:25:02;3.20;;;2.17;;
73693;SDS011;61997;53.974;11.670;2023-05-07T08:27:30;2.40;;;1.77;;
73693;SDS011;61997;53.974;11.670;2023-05-07T08:29:55;2.78;;;2.10;;
73693;SDS011;61997;53.974;11.670;2023-05-07T08:32:21;3.45;;;2.05;;
73693;SDS011;61997;53.974;11.670;2023-05-07T08:34:47;2.95;;;2.00;;
73693;SDS011;61997;53.974;11.670;2023-05-07T08:37:14;2.85;;;1.80;;
73693;SDS011;61997;53.974;11.670;2023-05-07T08:39:41;3.05;;;2.10;;
73693;SDS011;61997;53.974;11.670;2023-05-07T08:42:07;3.20;;;2.08;;
73693;SDS011;61997;53.974;11.670;2023-05-07T08:44:35;3.50;;;2.30;;
73693;SDS011;61997;53.974;11.670;2023-05-07T08:47:01;3.53;;;2.00;;
73693;SDS011;61997;53.974;11.670;2023-05-07T08:49:28;3.08;;;2.10;;
73693;SDS011;61997;53.974;11.670;2023-05-07T08:51:57;3.42;;;2.20;;
73693;SDS011;61997;53.974;11.670;2023-05-07T08:54:26;3.55;;;2.22;;
73693;SDS011;61997;53.974;11.670;2023-05-07T08:56:54;2.47;;;1.90;;
73693;SDS011;61997;53.974;11.670;2023-05-07T08:59:20;4.30;;;2.17;;
73693;SDS011;61997;53.974;11.670;2023-05-07T09:01:46;2.75;;;2.17;;
73693;SDS011;61997;53.974;11.670;2023-05-07T09:04:18;2.70;;;2.05;;
73693;SDS011;61997;53.974;11.670;2023-05-07T09:06:51;3.05;;;2.30;;
73693;SDS011;61997;53.974;11.670;2023-05-07T09:11:56;2.13;;;1.63;;
73693;SDS011;61997;53.974;11.670;2023-05-07T09:14:34;3.10;;;1.88;;
73693;SDS011;61997;53.974;11.670;2023-05-07T09:17:07;3.13;;;2.15;;
73693;SDS011;61997;53.974;11.670;2023-05-07T09:19:37;3.92;;;2.20;;
73693;SDS011;61997;53.974;11.670;2023-05-07T09:22:07;3.30;;;1.92;;
73693;SDS011;61997;53.974;11.670;2023-05-07T09:24:46;4.43;;;2.30;;
73693;SDS011;61997;53.974;11.670;2023-05-07T09:27:19;3.45;;;2.17;;
73693;SDS011;61997;53.974;11.670;2023-05-07T09:29:52;2.30;;;1.88;;
73693;SDS011;61997;53.974;11.670;2023-05-07T09:32:24;2.30;;;1.70;;
73693;SDS011;61997;53.974;11.670;2023-05-07T09:34:57;3.38;;;1.73;;
73693;SDS011;61997;53.974;11.670;2023-05-07T09:37:30;3.80;;;1.92;;
73693;SDS011;61997;53.974;11.670;2023-05-07T09:40:02;2.40;;;1.90;;
73693;SDS011;61997;53.974;11.670;2023-05-07T09:42:34;2.53;;;1.80;;
73693;SDS011;61997;53.974;11.670;2023-05-07T09:45:08;2.92;;;1.85;;
73693;SDS011;61997;53.974;11.670;2023-05-07T09:47:33;3.42;;;1.95;;
73693;SDS011;61997;53.974;11.670;2023-05-07T09:50:05;3.38;;;2.00;;
73693;SDS011;61997;53.974;11.670;2023-05-07T09:52:34;2.45;;;1.75;;
73693;SDS011;61997;53.974;11.670;2023-05-07T09:55:04;3.50;;;2.17;;
73693;SDS011;61997;53.974;11.670;2023-05-07T09:57:31;2.35;;;1.65;;
73693;SDS011;61997;53.974;11.670;2023-05-07T09:59:58;2.33;;;1.90;;
73693;SDS011;61997;53.974;11.670;2023-05-07T10:02:28;3.03;;;2.00;;
73693;SDS011;61997;53.974;11.670;2023-05-07T10:05:00;2.50;;;1.60;;
73693;SDS011;61997;53.974;11.670;2023-05-07T10:07:31;3.30;;;1.77;;
73693;SDS011;61997;53.974;11.670;2023-05-07T10:09:59;2.35;;;1.77;;
73693;SDS011;61997;53.974;11.670;2023-05-07T10:12:28;3.08;;;1.90;;
73693;SDS011;61997;53.974;11.670;2023-05-07T10:15:02;3.00;;;1.70;;
73693;SDS011;61997;53.974;11.670;2023-05-07T10:17:29;2.45;;;1.73;;
73693;SDS011;61997;53.974;11.670;2023-05-07T10:19:55;1.95;;;1.45;;
73693;SDS011;61997;53.974;11.670;2023-05-07T10:22:22;2.22;;;1.42;;
73693;SDS011;61997;53.974;11.670;2023-05-07T10:24:50;2.50;;;2.30;;
73693;SDS011;61997;53.974;11.670;2023-05-07T10:27:23;2.65;;;1.75;;
73693;SDS011;61997;53.974;11.670;2023-05-07T10:29:55;2.42;;;1.85;;
73693;SDS011;61997;53.974;11.670;2023-05-07T10:35:19;2.33;;;1.63;;
73693;SDS011;61997;53.974;11.670;2023-05-07T10:37:47;2.47;;;1.48;;
73693;SDS011;61997;53.974;11.670;2023-05-07T10:40:19;2.53;;;1.45;;
73693;SDS011;61997;53.974;11.670;2023-05-07T10:45:22;2.40;;;1.80;;
73693;SDS011;61997;53.974;11.670;2023-05-07T10:48:06;2.40;;;1.55;;
73693;SDS011;61997;53.974;11.670;2023-05-07T10:50:40;2.40;;;1.60;;
73693;SDS011;61997;53.974;11.670;2023-05-07T10:55:46;2.58;;;1.63;;
73693;SDS011;61997;53.974;11.670;2023-05-07T11:00:57;1.83;;;1.48;;
73693;SDS011;61997;53.974;11.670;2023-05-07T11:03:25;2.80;;;1.60;;
73693;SDS011;61997;53.974;11.670;2023-05-07T11:08:52;2.38;;;1.40;;
73693;SDS011;61997;53.974;11.670;2023-05-07T11:14:13;2.35;;;1.50;;
73693;SDS011;61997;53.974;11.670;2023-05-07T11:16:46;1.90;;;1.30;;
73693;SDS011;61997;53.974;11.670;2023-05-07T11:19:15;2.83;;;1.40;;
73693;SDS011;61997;53.974;11.670;2023-05-07T11:21:41;2.13;;;1.63;;
73693;SDS011;61997;53.974;11.670;2023-05-07T11:24:08;1.95;;;1.40;;
73693;SDS011;61997;53.974;11.670;2023-05-07T11:26:48;2.88;;;1.80;;
73693;SDS011;61997;53.974;11.670;2023-05-07T11:29:16;1.92;;;1.30;;
73693;SDS011;61997;53.974;11.670;2023-05-07T11:34:09;2.90;;;1.65;;
73693;SDS011;61997;53.974;11.670;2023-05-07T11:36:36;1.98;;;1.50;;
73693;SDS011;61997;53.974;11.670;2023-05-07T11:39:22;2.83;;;1.58;;
73693;SDS011;61997;53.974;11.670;2023-05-07T11:41:49;2.13;;;1.38;;
73693;SDS011;61997;53.974;11.670;2023-05-07T11:44:21;1.50;;;1.30;;
73693;SDS011;61997;53.974;11.670;2023-05-07T11:46:53;2.30;;;1.55;;
73693;SDS011;61997;53.974;11.670;2023-05-07T11:49:18;2.30;;;1.77;;
73693;SDS011;61997;53.974;11.670;2023-05-07T11:51:44;2.13;;;1.65;;
73693;SDS011;61997;53.974;11.670;2023-05-07T11:54:11;2.15;;;1.70;;
73693;SDS011;61997;53.974;11.670;2023-05-07T11:56:41;2.60;;;1.80;;
73693;SDS011;61997;53.974;11.670;2023-05-07T11:59:07;2.97;;;1.70;;
73693;SDS011;61997;53.974;11.670;2023-05-07T12:01:34;2.90;;;1.52;;
73693;SDS011;61997;53.974;11.670;2023-05-07T12:06:29;2.17;;;1.58;;
73693;SDS011;61997;53.974;11.670;2023-05-07T12:09:00;2.55;;;1.88;;
73693;SDS011;61997;53.974;11.670;2023-05-07T12:11:26;2.72;;;1.70;;
73693;SDS011;61997;53.974;11.670;2023-05-07T12:13:53;3.20;;;2.30;;
73693;SDS011;61997;53.974;11.670;2023-05-07T12:16:19;3.30;;;1.95;;
73693;SDS011;61997;53.974;11.670;2023-05-07T12:18:47;2.83;;;1.98;;
73693;SDS011;61997;53.974;11.670;2023-05-07T12:21:13;3.80;;;2.17;;
73693;SDS011;61997;53.974;11.670;2023-05-07T12:23:39;4.57;;;2.25;;
73693;SDS011;61997;53.974;11.670;2023-05-07T12:26:06;3.78;;;2.45;;
73693;SDS011;61997;53.974;11.670;2023-05-07T12:28:38;2.67;;;2.00;;
73693;SDS011;61997;53.974;11.670;2023-05-07T12:31:05;3.95;;;2.25;;
73693;SDS011;61997;53.974;11.670;2023-05-07T12:33:36;3.20;;;2.47;;
73693;SDS011;61997;53.974;11.670;2023-05-07T12:36:09;3.40;;;2.35;;
73693;SDS011;61997;53.974;11.670;2023-05-07T12:41:09;2.80;;;2.13;;
73693;SDS011;61997;53.974;11.670;2023-05-07T12:43:35;3.30;;;2.30;;
73693;SDS011;61997;53.974;11.670;2023-05-07T12:46:03;3.25;;;2.28;;
73693;SDS011;61997;53.974;11.670;2023-05-07T12:48:30;3.47;;;2.72;;
73693;SDS011;61997;53.974;11.670;2023-05-07T12:50:56;3.13;;;2.25;;
73693;SDS011;61997;53.974;11.670;2023-05-07T12:53:25;3.88;;;2.42;;
73693;SDS011;61997;53.974;11.670;2023-05-07T12:55:56;3.47;;;2.20;;
73693;SDS011;61997;53.974;11.670;2023-05-07T12:58:25;3.83;;;2.25;;
73693;SDS011;61997;53.974;11.670;2023-05-07T13:00:56;3.88;;;2.45;;
73693;SDS011;61997;53.974;11.670;2023-05-07T13:05:55;3.33;;;2.22;;
73693;SDS011;61997;53.974;11.670;2023-05-07T13:08:33;3.60;;;2.20;;
73693;SDS011;61997;53.974;11.670;2023-05-07T13:11:06;2.45;;;2.03;;
73693;SDS011;61997;53.974;11.670;2023-05-07T13:13:35;3.92;;;2.67;;
73693;SDS011;61997;53.974;11.670;2023-05-07T13:16:02;4.57;;;2.63;;
73693;SDS011;61997;53.974;11.670;2023-05-07T13:18:29;3.10;;;2.22;;
73693;SDS011;61997;53.974;11.670;2023-05-07T13:20:56;3.45;;;2.10;;
73693;SDS011;61997;53.974;11.670;2023-05-07T13:23:24;3.67;;;2.30;;
73693;SDS011;61997;53.974;11.670;2023-05-07T13:25:54;3.13;;;2.30;;
73693;SDS011;61997;53.974;11.670;2023-05-07T13:28:22;3.20;;;2.40;;
73693;SDS011;61997;53.974;11.670;2023-05-07T13:30:52;5.10;;;2.83;;
73693;SDS011;61997;53.974;11.670;2023-05-07T13:33:18;2.97;;;2.40;;
73693;SDS011;61997;53.974;11.670;2023-05-07T13:35:45;2.90;;;2.08;;
73693;SDS011;61997;53.974;11.670;2023-05-07T13:38:13;4.15;;;2.42;;
73693;SDS011;61997;53.974;11.670;2023-05-07T13:40:41;3.47;;;2.50;;
73693;SDS011;61997;53.974;11.670;2023-05-07T13:43:09;3.85;;;2.20;;
73693;SDS011;61997;53.974;11.670;2023-05-07T13:45:41;3.40;;;2.35;;
73693;SDS011;61997;53.974;11.670;2023-05-07T13:48:09;3.15;;;2.20;;
73693;SDS011;61997;53.974;11.670;2023-05-07T13:50:37;4.38;;;2.53;;
73693;SDS011;61997;53.974;11.670;2023-05-07T13:53:07;3.10;;;2.33;;
73693;SDS011;61997;53.974;11.670;2023-05-07T13:55:41;3.83;;;2.67;;
73693;SDS011;61997;53.974;11.670;2023-05-07T13:58:18;4.95;;;2.70;;
73693;SDS011;61997;53.974;11.670;2023-05-07T14:00:47;3.22;;;2.42;;
73693;SDS011;61997;53.974;11.670;2023-05-07T14:03:12;3.05;;;2.25;;
73693;SDS011;61997;53.974;11.670;2023-05-07T14:05:48;3.05;;;2.10;;
73693;SDS011;61997;53.974;11.670;2023-05-07T14:08:24;3.65;;;2.45;;
73693;SDS011;61997;53.974;11.670;2023-05-07T14:10:53;3.50;;;2.50;;
73693;SDS011;61997;53.974;11.670;2023-05-07T14:13:20;2.67;;;1.98;;
73693;SDS011;61997;53.974;11.670;2023-05-07T14:15:48;4.00;;;2.63;;
73693;SDS011;61997;53.974;11.670;2023-05-07T14:18:16;3.92;;;2.53;;
73693;SDS011;61997;53.974;11.670;2023-05-07T14:20:44;3.75;;;2.47;;
73693;SDS011;61997;53.974;11.670;2023-05-07T14:23:14;3.72;;;2.97;;
73693;SDS011;61997;53.974;11.670;2023-05-07T14:25:47;3.53;;;2.03;;
73693;SDS011;61997;53.974;11.670;2023-05-07T14:28:17;3.28;;;2.45;;
73693;SDS011;61997;53.974;11.670;2023-05-07T14:30:44;3.30;;;2.35;;
73693;SDS011;61997;53.974;11.670;2023-05-07T14:33:14;3.47;;;2.25;;
73693;SDS011;61997;53.974;11.670;2023-05-07T14:35:48;3.42;;;2.40;;
73693;SDS011;61997;53.974;11.670;2023-05-07T14:38:20;3.83;;;2.50;;
73693;SDS011;61997;53.974;11.670;2023-05-07T14:40:56;3.50;;;2.50;;
73693;SDS011;61997;53.974;11.670;2023-05-07T14:43:32;4.32;;;2.65;;
73693;SDS011;61997;53.974;11.670;2023-05-07T14:46:02;4.47;;;2.50;;
73693;SDS011;61997;53.974;11.670;2023-05-07T14:48:41;3.83;;;2.50;;
73693;SDS011;61997;53.974;11.670;2023-05-07T14:51:15;3.03;;;2.05;;
73693;SDS011;61997;53.974;11.670;2023-05-07T14:53:50;3.72;;;2.35;;
73693;SDS011;61997;53.974;11.670;2023-05-07T14:56:22;3.58;;;2.38;;
73693;SDS011;61997;53.974;11.670;2023-05-07T14:58:55;2.78;;;1.98;;
73693;SDS011;61997;53.974;11.670;2023-05-07T15:01:21;3.35;;;2.35;;
73693;SDS011;61997;53.974;11.670;2023-05-07T15:03:57;3.15;;;2.30;;
73693;SDS011;61997;53.974;11.670;2023-05-07T15:06:36;3.35;;;2.15;;
73693;SDS011;61997;53.974;11.670;2023-05-07T15:09:09;3.28;;;2.10;;
73693;SDS011;61997;53.974;11.670;2023-05-07T15:11:44;3.63;;;2.30;;
73693;SDS011;61997;53.974;11.670;2023-05-07T15:16:48;3.13;;;2.35;;
73693;SDS011;61997;53.974;11.670;2023-05-07T15:19:18;2.88;;;2.20;;
73693;SDS011;61997;53.974;11.670;2023-05-07T15:21:55;4.50;;;2.80;;
73693;SDS011;61997;53.974;11.670;2023-05-07T15:24:32;3.78;;;2.50;;
73693;SDS011;61997;53.974;11.670;2023-05-07T15:27:01;3.72;;;2.28;;
73693;SDS011;61997;53.974;11.670;2023-05-07T15:29:39;3.17;;;2.72;;
73693;SDS011;61997;53.974;11.670;2023-05-07T15:32:11;3.17;;;2.40;;